Time;durP1;ratioP1;P1;durP2;ratioP2;P2;SDS_P1;SDS_P2;PMS_P1;PMS_P2;Temp;Humidity;BMP_temperature;BMP_pressure;BME280_temperature;BME280_humidity;BME280_pressure;Samples;Min_cycle;Max_cycle;Signal;HPM_P1;HPM_P2
2024/01/19 00:00:42;;;;;;;0.90;0.65;;;2.00;99.90;;;;;;5051852;28;20039;-89
2024/01/19 00:03:08;;;;;;;1.35;0.60;;;2.00;99.90;;;;;;5050584;28;20020;-88
2024/01/19 00:05:34;;;;;;;5.85;1.20;;;2.10;99.90;;;;;;5049742;28;20028;-88
2024/01/19 00:07:59;;;;;;;5.32;0.80;;;2.10;99.90;;;;;;5048381;28;20021;-87
2024/01/19 00:10:25;;;;;;;3.22;1.05;;;2.10;99.90;;;;;;5036465;28;20112;-89
2024/01/19 00:12:50;;;;;;;4.88;1.33;;;2.10;99.90;;;;;;5043441;28;20493;-89
2024/01/19 00:15:16;;;;;;;2.78;1.17;;;2.10;99.90;;;;;;5056840;28;20346;-88
2024/01/19 00:17:45;;;;;;;3.85;1.00;;;2.10;99.90;;;;;;5058691;28;20025;-87
2024/01/19 00:20:11;;;;;;;4.90;1.30;;;2.10;99.90;;;;;;5058389;28;20036;-88
2024/01/19 00:22:36;;;;;;;4.72;1.20;;;2.10;99.90;;;;;;5058665;28;20037;-88
2024/01/19 00:25:02;;;;;;;4.03;1.30;;;2.10;99.90;;;;;;5055998;28;20029;-88
2024/01/19 00:27:29;;;;;;;5.50;1.60;;;2.10;99.90;;;;;;5050762;28;20060;-88
2024/01/19 00:29:55;;;;;;;8.00;1.33;;;2.10;99.90;;;;;;5049319;28;20111;-88
2024/01/19 00:32:21;;;;;;;5.55;1.00;;;2.20;99.90;;;;;;5052223;28;20052;-88
2024/01/19 00:34:46;;;;;;;2.88;1.23;;;2.10;99.90;;;;;;5051556;28;20071;-87
2024/01/19 00:37:12;;;;;;;6.35;1.17;;;2.10;99.90;;;;;;5050793;28;20032;-88
2024/01/19 00:39:37;;;;;;;4.65;1.15;;;2.10;99.90;;;;;;5051118;28;20029;-87
2024/01/19 00:42:03;;;;;;;5.35;1.63;;;2.00;99.90;;;;;;5050459;28;20124;-88
2024/01/19 00:44:29;;;;;;;6.15;1.25;;;2.10;99.90;;;;;;5051304;28;20017;-88
2024/01/19 00:46:54;;;;;;;6.88;1.05;;;2.00;99.90;;;;;;5053207;28;20107;-89
2024/01/19 00:49:20;;;;;;;2.83;1.33;;;2.00;99.90;;;;;;5054754;28;20078;-88
2024/01/19 00:51:45;;;;;;;11.00;2.47;;;2.00;99.90;;;;;;5054927;28;20112;-88
2024/01/19 00:54:11;;;;;;;5.20;1.17;;;2.00;99.90;;;;;;5060076;28;20020;-89
2024/01/19 00:56:37;;;;;;;4.80;1.00;;;2.10;99.90;;;;;;5063847;28;20029;-89
2024/01/19 00:59:02;;;;;;;2.88;1.40;;;2.10;99.90;;;;;;5054580;28;20021;-89
2024/01/19 01:01:28;;;;;;;4.85;1.70;;;2.10;99.90;;;;;;5055036;28;20033;-88
2024/01/19 01:03:55;;;;;;;5.75;1.13;;;2.10;99.90;;;;;;5055276;28;20184;-88
2024/01/19 01:06:20;;;;;;;4.13;1.27;;;2.10;99.90;;;;;;5054776;28;20489;-88
2024/01/19 01:08:46;;;;;;;3.40;0.95;;;2.10;99.90;;;;;;5042763;28;20025;-88
2024/01/19 01:11:11;;;;;;;4.82;1.27;;;2.10;99.90;;;;;;5042140;28;20102;-90
2024/01/19 01:13:37;;;;;;;4.28;1.33;;;2.20;99.90;;;;;;5053995;28;20041;-89
2024/01/19 01:16:04;;;;;;;4.07;1.70;;;2.10;99.90;;;;;;5055017;28;20116;-89
2024/01/19 01:18:30;;;;;;;2.60;0.90;;;2.20;99.90;;;;;;5054750;28;20436;-89
2024/01/19 01:20:57;;;;;;;3.25;1.02;;;2.20;99.90;;;;;;5054655;28;20033;-89
2024/01/19 01:23:23;;;;;;;1.95;1.00;;;2.20;99.90;;;;;;5056781;28;20028;-88
2024/01/19 01:25:48;;;;;;;3.75;1.00;;;2.20;99.90;;;;;;5073055;28;20051;-89
2024/01/19 01:28:14;;;;;;;5.28;1.05;;;2.20;99.90;;;;;;5074366;28;20074;-88
2024/01/19 01:30:40;;;;;;;7.28;1.08;;;2.20;99.90;;;;;;5067580;28;20406;-88
2024/01/19 01:33:06;;;;;;;4.60;0.88;;;2.20;99.90;;;;;;5053141;28;20040;-88
2024/01/19 01:35:32;;;;;;;3.17;1.50;;;2.20;99.90;;;;;;5053914;28;20029;-89
2024/01/19 01:37:58;;;;;;;2.67;1.20;;;3.00;99.90;;;;;;5054353;28;20391;-89
2024/01/19 01:40:23;;;;;;;4.15;1.00;;;2.20;99.90;;;;;;5055387;28;20041;-89
2024/01/19 01:42:49;;;;;;;6.28;1.85;;;2.20;99.90;;;;;;5060844;28;20089;-88
2024/01/19 01:45:14;;;;;;;4.35;0.98;;;2.20;99.90;;;;;;5054827;28;20029;-89
2024/01/19 01:47:40;;;;;;;6.65;1.20;;;2.20;99.90;;;;;;5054113;28;20021;-89
2024/01/19 01:50:07;;;;;;;3.92;1.48;;;2.10;99.90;;;;;;5060467;28;20013;-88
2024/01/19 01:52:33;;;;;;;6.75;1.15;;;2.20;99.90;;;;;;5055954;28;20029;-85
2024/01/19 01:54:58;;;;;;;6.35;1.08;;;2.10;99.90;;;;;;5053475;28;20377;-87
2024/01/19 01:57:25;;;;;;;3.00;1.10;;;2.20;99.90;;;;;;5053418;28;20044;-87
2024/01/19 01:59:53;;;;;;;5.57;1.13;;;2.10;99.90;;;;;;5053975;28;20040;-88
2024/01/19 02:02:20;;;;;;;5.15;1.20;;;2.00;99.90;;;;;;5053003;28;20075;-87
2024/01/19 02:04:45;;;;;;;3.40;1.00;;;2.00;99.90;;;;;;5054402;28;20021;-88
2024/01/19 02:07:11;;;;;;;5.90;0.93;;;2.00;99.90;;;;;;5053210;28;20032;-87
2024/01/19 02:09:36;;;;;;;3.20;1.17;;;1.90;99.90;;;;;;5035633;28;20041;-87
2024/01/19 02:12:05;;;;;;;1.10;0.70;;;1.80;99.90;;;;;;5033781;28;20461;-87
2024/01/19 02:14:31;;;;;;;4.20;1.27;;;1.70;99.90;;;;;;5042608;28;20035;-88
2024/01/19 02:16:56;;;;;;;3.65;1.20;;;1.60;99.90;;;;;;5052928;28;20408;-87
2024/01/19 02:19:22;;;;;;;5.50;0.93;;;1.60;99.90;;;;;;5052728;28;20021;-87
2024/01/19 02:21:48;;;;;;;3.63;1.00;;;1.60;99.90;;;;;;5052026;28;20037;-88
2024/01/19 02:24:18;;;;;;;1.83;0.90;;;1.50;99.90;;;;;;5053430;28;20048;-88
2024/01/19 02:26:44;;;;;;;5.47;1.45;;;1.50;99.90;;;;;;5053790;28;20384;-87
2024/01/19 02:29:11;;;;;;;6.60;1.10;;;1.50;99.90;;;;;;5051942;28;20072;-88
2024/01/19 02:31:36;;;;;;;5.18;1.52;;;1.40;99.90;;;;;;5053394;28;20507;-88
2024/01/19 02:34:02;;;;;;;9.68;1.60;;;1.40;99.90;;;;;;5054172;28;20025;-88
2024/01/19 02:36:27;;;;;;;10.43;1.60;;;1.50;99.90;;;;;;5047668;28;20473;-88
2024/01/19 02:38:53;;;;;;;6.57;1.80;;;1.40;99.90;;;;;;5059795;28;20047;-89
2024/01/19 02:41:20;;;;;;;3.22;1.38;;;1.50;99.90;;;;;;5061740;28;20075;-88
2024/01/19 02:43:45;;;;;;;10.95;1.88;;;1.50;99.90;;;;;;5052479;28;20104;-89
2024/01/19 02:46:14;;;;;;;9.15;1.48;;;1.50;99.90;;;;;;5053758;28;20060;-88
2024/01/19 02:48:40;;;;;;;3.67;1.00;;;1.60;99.90;;;;;;5053144;28;20032;-88
2024/01/19 02:51:05;;;;;;;3.45;1.48;;;1.60;99.90;;;;;;5051576;28;20021;-88
2024/01/19 02:53:31;;;;;;;4.45;1.45;;;1.70;99.90;;;;;;5053083;28;20485;-87
2024/01/19 02:55:56;;;;;;;3.97;1.67;;;1.70;99.90;;;;;;5052647;28;20025;-88
2024/01/19 02:58:22;;;;;;;3.63;1.48;;;1.80;99.90;;;;;;5051723;28;20056;-89
2024/01/19 03:00:47;;;;;;;7.57;2.38;;;1.80;99.90;;;;;;5057763;28;20033;-88
2024/01/19 03:03:13;;;;;;;3.55;1.60;;;1.90;99.90;;;;;;5073090;28;20029;-88
2024/01/19 03:05:39;;;;;;;3.85;1.50;;;1.90;99.90;;;;;;5056335;28;20032;-88
2024/01/19 03:08:04;;;;;;;8.88;1.50;;;2.00;99.90;;;;;;5054213;28;20392;-88
2024/01/19 03:10:30;;;;;;;4.20;1.63;;;2.00;99.90;;;;;;5053956;28;20029;-88
2024/01/19 03:12:56;;;;;;;5.15;1.80;;;2.00;99.90;;;;;;5056229;28;20056;-88
2024/01/19 03:15:22;;;;;;;6.10;1.60;;;2.10;99.90;;;;;;5053766;28;20028;-89
2024/01/19 03:17:47;;;;;;;4.43;1.73;;;2.10;99.90;;;;;;5052477;28;20029;-89
2024/01/19 03:20:13;;;;;;;4.80;2.40;;;2.10;99.90;;;;;;5052805;28;20071;-89
2024/01/19 03:22:38;;;;;;;4.72;1.75;;;2.10;99.90;;;;;;5051156;28;20017;-88
2024/01/19 03:25:04;;;;;;;3.92;1.75;;;2.00;99.90;;;;;;5050950;28;20432;-87
2024/01/19 03:27:30;;;;;;;8.25;1.95;;;1.90;99.90;;;;;;5052183;28;20116;-88
2024/01/19 03:29:56;;;;;;;10.10;1.88;;;1.80;99.90;;;;;;5060033;28;20130;-87
2024/01/19 03:32:21;;;;;;;8.23;2.10;;;1.70;99.90;;;;;;5061416;28;20032;-88
2024/01/19 03:34:47;;;;;;;5.68;1.92;;;1.60;99.90;;;;;;5062028;28;20028;-88
2024/01/19 03:37:13;;;;;;;6.80;2.05;;;2.00;99.90;;;;;;5061382;28;20021;-87
2024/01/19 03:39:39;;;;;;;6.30;2.00;;;1.60;99.90;;;;;;5053719;28;20424;-87
2024/01/19 03:42:06;;;;;;;12.20;1.92;;;1.50;99.90;;;;;;5051180;28;20094;-87
2024/01/19 03:44:31;;;;;;;4.53;2.00;;;1.50;99.90;;;;;;5035401;28;20432;-88
2024/01/19 03:46:59;;;;;;;9.30;2.50;;;1.40;99.90;;;;;;5041798;28;20021;-88
2024/01/19 03:49:25;;;;;;;5.53;2.10;;;1.50;99.90;;;;;;5052748;28;20039;-88
2024/01/19 03:51:58;;;;;;;11.18;2.33;;;1.40;99.90;;;;;;5052210;28;20025;-88
2024/01/19 03:54:24;;;;;;;6.97;2.38;;;1.50;99.90;;;;;;5063116;28;20029;-89
2024/01/19 03:56:49;;;;;;;6.80;2.30;;;1.50;99.90;;;;;;5070967;28;20025;-88
2024/01/19 03:59:15;;;;;;;7.07;2.03;;;1.50;99.90;;;;;;5062164;28;20024;-88
2024/01/19 04:01:41;;;;;;;9.68;2.30;;;1.50;99.90;;;;;;5054717;28;20037;-88
2024/01/19 04:04:06;;;;;;;11.13;2.90;;;1.60;99.90;;;;;;5052166;28;20074;-90
2024/01/19 04:06:32;;;;;;;5.38;3.13;;;1.50;99.90;;;;;;5051565;28;20029;-89
2024/01/19 04:08:57;;;;;;;6.93;2.28;;;1.60;99.90;;;;;;5050284;28;20056;-88
2024/01/19 04:11:23;;;;;;;7.65;2.40;;;1.60;99.90;;;;;;5053450;28;20032;-89
2024/01/19 04:13:49;;;;;;;9.15;2.33;;;2.50;99.90;;;;;;5052284;28;20041;-88
2024/01/19 04:16:16;;;;;;;7.10;2.78;;;1.60;99.90;;;;;;5050382;28;20136;-89
2024/01/19 04:18:42;;;;;;;5.30;2.75;;;1.70;99.90;;;;;;5052383;28;20098;-88
2024/01/19 04:21:07;;;;;;;15.52;2.92;;;1.60;99.90;;;;;;5052771;28;20087;-89
2024/01/19 04:23:34;;;;;;;9.57;2.47;;;1.60;99.90;;;;;;5056858;28;20056;-89
2024/01/19 04:25:59;;;;;;;6.18;2.67;;;1.60;99.90;;;;;;5063428;28;20028;-89
2024/01/19 04:28:25;;;;;;;6.03;3.15;;;1.70;99.90;;;;;;5053747;28;20098;-88
2024/01/19 04:30:51;;;;;;;12.13;3.22;;;1.70;99.90;;;;;;5055928;28;20032;-89
2024/01/19 04:33:17;;;;;;;6.00;2.60;;;1.80;99.90;;;;;;5055850;28;20430;-88
2024/01/19 04:35:43;;;;;;;7.40;2.78;;;1.80;99.90;;;;;;5054749;28;20056;-87
2024/01/19 04:38:08;;;;;;;7.60;2.83;;;1.80;99.90;;;;;;5055203;28;20037;-87
2024/01/19 04:40:34;;;;;;;9.88;3.20;;;1.80;99.90;;;;;;5055375;28;20056;-88
2024/01/19 04:42:59;;;;;;;16.25;3.40;;;1.80;99.90;;;;;;5054256;28;20032;-87
2024/01/19 04:45:25;;;;;;;12.23;2.97;;;1.80;99.90;;;;;;5054926;28;20040;-87
2024/01/19 04:47:50;;;;;;;6.88;2.10;;;1.80;99.90;;;;;;5052098;28;20063;-88
2024/01/19 04:50:16;;;;;;;8.70;2.60;;;1.80;99.90;;;;;;5054633;28;20029;-87
2024/01/19 04:52:42;;;;;;;9.10;2.90;;;1.90;99.90;;;;;;5055487;28;20485;-88
2024/01/19 04:55:08;;;;;;;14.35;3.10;;;1.90;99.90;;;;;;5054315;28;20025;-88
2024/01/19 04:57:33;;;;;;;6.25;2.70;;;1.90;99.90;;;;;;5074681;28;20096;-88
2024/01/19 04:59:59;;;;;;;14.98;3.05;;;2.00;99.90;;;;;;5075531;28;20460;-88
2024/01/19 05:02:24;;;;;;;7.18;2.25;;;2.00;99.90;;;;;;5074389;28;20032;-86
2024/01/19 05:04:50;;;;;;;7.45;2.78;;;2.00;99.90;;;;;;5075135;28;20518;-88
2024/01/19 05:07:16;;;;;;;3.70;1.98;;;2.10;99.90;;;;;;5072925;28;20029;-88
2024/01/19 05:09:41;;;;;;;9.10;2.40;;;2.10;99.90;;;;;;5052550;28;20450;-88
2024/01/19 05:12:07;;;;;;;8.52;2.10;;;2.10;99.90;;;;;;5064049;28;20053;-88
2024/01/19 05:14:32;;;;;;;7.90;2.05;;;2.20;99.90;;;;;;5052516;28;20538;-89
2024/01/19 05:16:58;;;;;;;11.63;2.33;;;2.20;99.90;;;;;;5055324;28;20028;-89
2024/01/19 05:19:23;;;;;;;5.38;2.40;;;2.20;99.90;;;;;;5056049;28;20021;-88
2024/01/19 05:21:49;;;;;;;4.88;2.10;;;2.20;99.90;;;;;;5056923;28;20511;-88
2024/01/19 05:24:14;;;;;;;5.72;2.00;;;2.30;99.90;;;;;;5054699;28;20071;-85
2024/01/19 05:26:40;;;;;;;8.27;3.05;;;2.30;99.90;;;;;;5056063;28;20036;-87
2024/01/19 05:29:06;;;;;;;9.50;2.72;;;2.30;99.90;;;;;;5053057;28;20512;-89
2024/01/19 05:31:31;;;;;;;7.72;2.75;;;2.30;99.90;;;;;;5054079;28;20410;-87
2024/01/19 05:33:57;;;;;;;7.20;2.40;;;2.30;99.90;;;;;;5053613;28;20021;-89
2024/01/19 05:36:23;;;;;;;5.55;2.00;;;2.30;99.90;;;;;;5054959;28;20029;-87
2024/01/19 05:38:49;;;;;;;6.05;1.90;;;2.30;99.90;;;;;;5057655;28;20071;-89
2024/01/19 05:41:21;;;;;;;10.18;3.10;;;2.30;99.90;;;;;;5058576;28;20033;-88
2024/01/19 05:43:47;;;;;;;10.98;2.30;;;2.20;99.90;;;;;;5057816;28;20421;-87
2024/01/19 05:46:13;;;;;;;10.43;2.90;;;2.20;99.90;;;;;;5063613;28;20053;-88
2024/01/19 05:48:39;;;;;;;8.18;2.28;;;2.30;99.90;;;;;;5061381;28;20155;-87
2024/01/19 05:51:14;;;;;;;6.60;2.45;;;2.20;99.90;;;;;;5057261;28;20079;-87
2024/01/19 05:53:39;;;;;;;5.22;2.67;;;2.20;99.90;;;;;;5057346;28;20032;-87
2024/01/19 05:56:05;;;;;;;8.70;2.65;;;2.20;99.90;;;;;;5053804;28;20017;-87
2024/01/19 05:58:31;;;;;;;11.38;3.03;;;2.20;99.90;;;;;;5049032;28;20503;-90
2024/01/19 06:00:57;;;;;;;6.95;2.80;;;2.20;99.90;;;;;;5039866;28;20033;-90
2024/01/19 06:03:22;;;;;;;9.63;2.83;;;2.20;99.90;;;;;;5052702;28;20028;-90
2024/01/19 06:05:49;;;;;;;13.27;3.05;;;2.20;99.90;;;;;;5050915;28;20025;-89
2024/01/19 06:08:14;;;;;;;4.43;2.80;;;2.20;99.90;;;;;;5051969;28;20033;-90
2024/01/19 06:10:40;;;;;;;13.48;3.20;;;2.20;99.90;;;;;;5054545;28;20017;-90
2024/01/19 06:13:06;;;;;;;11.32;3.95;;;2.20;99.90;;;;;;5054242;28;20148;-91
2024/01/19 06:15:31;;;;;;;15.15;5.13;;;2.20;99.90;;;;;;5054074;28;20079;-90
2024/01/19 06:17:57;;;;;;;11.50;4.47;;;2.20;99.90;;;;;;5053404;28;20033;-90
2024/01/19 06:20:22;;;;;;;10.20;3.88;;;2.20;99.90;;;;;;5053621;28;20032;-91
2024/01/19 06:22:48;;;;;;;8.40;3.33;;;2.20;99.90;;;;;;5053705;28;20049;-91
2024/01/19 06:25:14;;;;;;;7.82;3.30;;;2.20;99.90;;;;;;5040390;28;20116;-91
2024/01/19 06:27:40;;;;;;;13.13;3.00;;;2.20;99.90;;;;;;5073840;28;20052;-91
2024/01/19 06:30:06;;;;;;;9.20;3.13;;;2.20;99.90;;;;;;5074091;28;20029;-89
2024/01/19 06:32:32;;;;;;;3.65;2.40;;;2.10;99.90;;;;;;5073721;28;20017;-90
2024/01/19 06:34:58;;;;;;;9.13;3.13;;;2.10;99.90;;;;;;5073126;28;20494;-90
2024/01/19 06:37:23;;;;;;;8.30;3.42;;;2.10;99.90;;;;;;5074309;28;20024;-90
2024/01/19 06:39:49;;;;;;;4.88;3.13;;;2.20;99.90;;;;;;5073527;28;20400;-90
2024/01/19 06:42:14;;;;;;;8.60;2.90;;;2.10;99.90;;;;;;5050138;28;20028;-89
2024/01/19 06:44:43;;;;;;;9.27;3.25;;;2.10;99.90;;;;;;5048491;28;20025;-89
2024/01/19 06:47:09;;;;;;;6.55;3.33;;;2.10;99.90;;;;;;5082476;28;20051;-89
2024/01/19 06:49:36;;;;;;;8.45;3.58;;;2.10;99.90;;;;;;5073822;28;20008;-89
2024/01/19 06:52:04;;;;;;;7.97;3.40;;;2.10;99.90;;;;;;5071022;28;20542;-89
2024/01/19 06:54:31;;;;;;;3.95;3.15;;;2.00;99.90;;;;;;5075248;28;20053;-88
2024/01/19 06:56:56;;;;;;;9.93;3.72;;;2.00;99.90;;;;;;5050600;28;20032;-89
2024/01/19 06:59:22;;;;;;;8.57;4.13;;;2.00;99.90;;;;;;5066600;28;20028;-89
2024/01/19 07:01:48;;;;;;;5.50;4.32;;;2.00;99.90;;;;;;5056575;28;20047;-90
2024/01/19 07:04:13;;;;;;;8.82;4.45;;;2.00;99.90;;;;;;5048176;28;20096;-90
2024/01/19 07:06:39;;;;;;;8.93;4.28;;;1.90;99.90;;;;;;5053742;28;20025;-90
2024/01/19 07:09:04;;;;;;;9.13;4.18;;;1.80;99.90;;;;;;5055318;28;20029;-89
2024/01/19 07:11:33;;;;;;;6.25;3.75;;;1.80;99.90;;;;;;5045293;28;20025;-90
2024/01/19 07:13:58;;;;;;;7.55;3.92;;;1.80;99.90;;;;;;5051934;28;20049;-90
2024/01/19 07:16:24;;;;;;;5.95;4.28;;;1.80;99.90;;;;;;5033895;28;20033;-88
2024/01/19 07:18:49;;;;;;;7.03;3.55;;;1.80;99.90;;;;;;5067326;28;20032;-90
2024/01/19 07:21:16;;;;;;;9.82;3.65;;;1.80;99.90;;;;;;5048935;28;20033;-90
2024/01/19 07:23:41;;;;;;;8.70;3.70;;;1.80;99.90;;;;;;5051326;28;20039;-91
2024/01/19 07:26:07;;;;;;;9.70;3.65;;;2.50;99.90;;;;;;5042674;28;20029;-91
2024/01/19 07:28:32;;;;;;;6.90;3.63;;;1.70;99.90;;;;;;5037712;28;20029;-89
2024/01/19 07:30:58;;;;;;;11.25;4.15;;;1.70;99.90;;;;;;5052690;28;20029;-90
2024/01/19 07:33:24;;;;;;;8.30;3.88;;;1.70;99.90;;;;;;5064268;28;20021;-89
2024/01/19 07:35:49;;;;;;;10.13;4.60;;;1.70;99.90;;;;;;5070219;28;20028;-90
2024/01/19 07:38:15;;;;;;;10.93;3.90;;;1.60;99.90;;;;;;5047959;28;20022;-89
2024/01/19 07:40:40;;;;;;;13.98;4.28;;;1.60;99.90;;;;;;5063844;28;20047;-89
2024/01/19 07:43:06;;;;;;;6.55;3.78;;;1.70;99.90;;;;;;5052260;28;20025;-88
2024/01/19 07:45:32;;;;;;;8.93;3.65;;;1.70;99.90;;;;;;5052359;28;20033;-88
2024/01/19 07:47:57;;;;;;;5.75;3.10;;;1.60;99.90;;;;;;5051885;28;20070;-89
2024/01/19 07:50:23;;;;;;;6.28;4.00;;;1.70;99.90;;;;;;5052403;28;20079;-91
2024/01/19 07:52:48;;;;;;;7.45;3.38;;;1.70;99.90;;;;;;5051222;28;20078;-91
2024/01/19 07:55:15;;;;;;;7.57;3.45;;;1.60;99.90;;;;;;5050582;28;20104;-91
2024/01/19 07:57:40;;;;;;;7.20;3.35;;;1.70;99.90;;;;;;5050639;28;20063;-90
2024/01/19 08:00:08;;;;;;;7.65;3.90;;;1.60;99.90;;;;;;5050103;28;20036;-89
2024/01/19 08:02:34;;;;;;;12.90;3.85;;;1.70;99.90;;;;;;5049679;28;20051;-91
2024/01/19 08:04:59;;;;;;;5.40;3.33;;;1.70;99.90;;;;;;5047102;28;20026;-89
2024/01/19 08:07:26;;;;;;;13.00;3.83;;;1.70;99.90;;;;;;5044538;28;20468;-89
2024/01/19 08:09:52;;;;;;;15.98;3.20;;;1.70;99.90;;;;;;5052085;28;20021;-91
2024/01/19 08:12:17;;;;;;;9.20;3.45;;;1.70;99.90;;;;;;5050557;28;20060;-91
2024/01/19 08:14:43;;;;;;;4.55;3.17;;;1.70;99.90;;;;;;5050894;28;20017;-91
2024/01/19 08:17:08;;;;;;;9.30;4.07;;;1.70;99.90;;;;;;5049238;28;20025;-91
2024/01/19 08:19:34;;;;;;;7.28;3.70;;;2.40;99.90;;;;;;5050293;28;20549;-91
2024/01/19 08:22:00;;;;;;;6.88;4.32;;;1.80;99.90;;;;;;5049763;28;20511;-90
2024/01/19 08:24:26;;;;;;;7.40;3.38;;;1.80;99.90;;;;;;5051469;28;20024;-89
2024/01/19 08:26:51;;;;;;;8.77;3.35;;;1.80;99.90;;;;;;5044668;28;20457;-90
2024/01/19 08:29:17;;;;;;;7.07;3.13;;;1.80;99.90;;;;;;5050227;28;20074;-89
2024/01/19 08:31:43;;;;;;;15.50;3.85;;;1.80;99.90;;;;;;5043803;28;20104;-90
2024/01/19 08:34:18;;;;;;;7.25;3.63;;;1.80;99.90;;;;;;5034046;28;20092;-90
2024/01/19 08:36:43;;;;;;;11.38;3.38;;;1.90;99.90;;;;;;5065268;28;20176;-91
2024/01/19 08:39:09;;;;;;;8.23;3.35;;;1.90;99.90;;;;;;5081481;22;20073;-90
2024/01/19 08:41:42;;;;;;;5.63;3.17;;;1.90;99.90;;;;;;5053216;28;20621;-89
2024/01/19 08:44:07;;;;;;;7.53;3.83;;;2.00;99.90;;;;;;5052569;28;20029;-90
2024/01/19 08:46:34;;;;;;;5.10;3.00;;;2.00;99.90;;;;;;5031709;28;20528;-91
2024/01/19 08:49:00;;;;;;;4.50;3.45;;;2.00;99.90;;;;;;5030018;28;20029;-88
2024/01/19 08:51:28;;;;;;;9.75;3.10;;;2.10;99.90;;;;;;5031970;28;20028;-90
2024/01/19 08:53:54;;;;;;;8.45;3.20;;;2.20;99.90;;;;;;5032197;28;20026;-90
2024/01/19 08:56:23;;;;;;;5.05;2.95;;;2.10;99.90;;;;;;5032489;28;20107;-90
2024/01/19 08:58:48;;;;;;;9.40;3.95;;;2.20;99.90;;;;;;5032070;28;20561;-88
2024/01/19 09:01:18;;;;;;;8.48;3.92;;;2.30;99.90;;;;;;5032704;28;20116;-86
2024/01/19 09:03:44;;;;;;;9.23;3.47;;;2.30;99.90;;;;;;5011277;28;20026;-90
2024/01/19 09:06:10;;;;;;;9.50;4.18;;;2.30;99.90;;;;;;5011787;28;20360;-90
2024/01/19 09:08:35;;;;;;;5.72;3.28;;;2.30;99.90;;;;;;5015829;28;20022;-88
2024/01/19 09:11:03;;;;;;;6.95;3.35;;;2.30;99.90;;;;;;5033364;28;20491;-90
2024/01/19 09:13:28;;;;;;;5.82;3.17;;;2.30;99.90;;;;;;5037609;28;20034;-90
2024/01/19 09:15:54;;;;;;;5.88;3.97;;;2.20;99.90;;;;;;5035737;28;20028;-90
2024/01/19 09:18:21;;;;;;;7.20;3.83;;;2.20;99.90;;;;;;5036258;28;20025;-90
2024/01/19 09:20:47;;;;;;;13.70;3.78;;;2.20;99.90;;;;;;5035111;28;20349;-91
2024/01/19 09:23:13;;;;;;;7.60;4.03;;;3.10;99.90;;;;;;5035719;28;20041;-90
2024/01/19 09:25:39;;;;;;;8.73;3.22;;;2.20;99.90;;;;;;5035074;28;20037;-89
2024/01/19 09:28:05;;;;;;;18.52;4.00;;;2.30;99.90;;;;;;5037249;28;20077;-90
2024/01/19 09:30:30;;;;;;;15.05;4.22;;;2.30;99.90;;;;;;5028676;28;20044;-90
2024/01/19 09:32:56;;;;;;;20.30;3.55;;;2.50;99.90;;;;;;5021904;28;20030;-89
2024/01/19 09:35:21;;;;;;;11.45;4.03;;;2.40;99.90;;;;;;5042730;28;20081;-90
2024/01/19 09:37:49;;;;;;;13.82;4.43;;;2.50;99.90;;;;;;5042261;28;20057;-89
2024/01/19 09:40:19;;;;;;;12.43;3.58;;;2.50;99.90;;;;;;5036023;28;20112;-89
2024/01/19 09:42:46;;;;;;;7.15;2.92;;;2.50;99.90;;;;;;5033920;28;20033;-90
2024/01/19 09:45:17;;;;;;;17.83;3.50;;;2.50;99.90;;;;;;5049230;28;20021;-88
2024/01/19 09:47:55;;;;;;;9.90;3.88;;;2.50;99.90;;;;;;5059373;28;20043;-90
2024/01/19 09:50:25;;;;;;;10.48;2.90;;;2.50;99.90;;;;;;5061552;28;20017;-89
2024/01/19 09:53:01;;;;;;;13.70;3.80;;;2.50;99.90;;;;;;5053480;28;20499;-88
2024/01/19 09:55:27;;;;;;;8.23;3.10;;;2.60;99.90;;;;;;5027484;28;20031;-91
2024/01/19 09:57:55;;;;;;;11.60;3.13;;;2.60;99.90;;;;;;5035755;28;20037;-88
2024/01/19 10:00:21;;;;;;;8.57;2.92;;;2.50;99.90;;;;;;5044405;28;20033;-90
2024/01/19 10:02:50;;;;;;;4.93;2.90;;;2.50;99.90;;;;;;5047090;28;20031;-89
2024/01/19 10:05:18;;;;;;;13.63;3.20;;;2.50;99.90;;;;;;5043641;28;20031;-89
2024/01/19 10:07:45;;;;;;;10.30;3.53;;;2.60;99.90;;;;;;5038424;28;20017;-89
2024/01/19 10:10:19;;;;;;;12.20;4.47;;;2.50;99.90;;;;;;5037559;28;20025;-88
2024/01/19 10:12:44;;;;;;;8.85;2.85;;;2.60;99.90;;;;;;5054143;28;20021;-90
2024/01/19 10:15:14;;;;;;;11.68;3.17;;;2.60;99.90;;;;;;5053973;28;20048;-89
2024/01/19 10:17:44;;;;;;;7.72;4.07;;;2.60;99.90;;;;;;5034407;28;20030;-89
2024/01/19 10:20:12;;;;;;;10.93;4.22;;;2.70;99.90;;;;;;5031024;28;20042;-88
2024/01/19 10:22:39;;;;;;;11.05;3.53;;;3.10;99.90;;;;;;5033119;28;20048;-90
2024/01/19 10:25:10;;;;;;;12.52;3.90;;;2.70;99.90;;;;;;5025987;28;20034;-89
2024/01/19 10:27:47;;;;;;;18.58;3.95;;;2.70;99.90;;;;;;5013014;28;20513;-89
2024/01/19 10:30:24;;;;;;;13.57;3.40;;;2.70;99.90;;;;;;5023369;28;20388;-90
2024/01/19 10:33:02;;;;;;;5.43;3.28;;;2.80;99.90;;;;;;5034012;28;20049;-86
2024/01/19 10:35:29;;;;;;;13.45;3.92;;;2.80;99.90;;;;;;5034122;28;20029;-89
2024/01/19 10:38:06;;;;;;;12.07;3.85;;;2.80;99.90;;;;;;5030045;28;20037;-89
2024/01/19 10:40:47;;;;;;;11.55;3.78;;;2.90;99.90;;;;;;5015966;28;20109;-89
2024/01/19 10:43:22;;;;;;;8.90;3.22;;;2.90;99.90;;;;;;5025626;28;20552;-89
2024/01/19 10:45:48;;;;;;;7.90;3.20;;;3.00;99.90;;;;;;5019101;28;20033;-89
2024/01/19 10:48:34;;;;;;;9.88;3.33;;;3.00;99.90;;;;;;5019153;28;20088;-89
2024/01/19 10:51:02;;;;;;;9.85;3.17;;;3.10;99.90;;;;;;5012646;28;20473;-88
2024/01/19 10:53:29;;;;;;;8.57;3.45;;;3.10;99.90;;;;;;5013684;28;20029;-87
2024/01/19 10:55:55;;;;;;;15.77;4.13;;;3.20;99.90;;;;;;5017376;28;20034;-89
2024/01/19 10:58:21;;;;;;;10.40;3.85;;;3.20;99.90;;;;;;5020144;28;20048;-89
2024/01/19 11:00:51;;;;;;;13.32;4.05;;;3.20;99.90;;;;;;5018220;28;20033;-91
2024/01/19 11:03:17;;;;;;;19.02;4.32;;;3.60;99.90;;;;;;5024030;28;20104;-90
2024/01/19 11:05:54;;;;;;;13.77;3.83;;;3.30;99.90;;;;;;5034685;28;20453;-89
2024/01/19 11:08:20;;;;;;;12.48;3.75;;;3.30;99.90;;;;;;5033062;28;20026;-90
2024/01/19 11:10:55;;;;;;;9.85;3.55;;;3.30;99.90;;;;;;5033318;28;20034;-90
2024/01/19 11:13:24;;;;;;;19.92;4.03;;;4.10;99.90;;;;;;5033772;28;20033;-91
2024/01/19 11:15:54;;;;;;;15.57;4.10;;;3.50;99.90;;;;;;5034661;28;20473;-90
2024/01/19 11:18:19;;;;;;;6.25;3.22;;;3.50;99.90;;;;;;5035962;28;20045;-91
2024/01/19 11:20:45;;;;;;;11.20;3.40;;;3.60;99.90;;;;;;5040989;28;20041;-90
2024/01/19 11:23:11;;;;;;;9.27;3.90;;;3.60;99.90;;;;;;5030220;28;20545;-86
2024/01/19 11:26:08;;;;;;;11.50;4.07;;;3.60;99.90;;;;;;5024606;28;20121;-91
2024/01/19 11:28:45;;;;;;;8.27;4.15;;;3.60;99.90;;;;;;5005697;28;20110;-90
2024/01/19 11:31:25;;;;;;;12.38;4.15;;;3.70;99.90;;;;;;5025865;28;20481;-89
2024/01/19 11:33:53;;;;;;;20.15;3.92;;;3.70;99.90;;;;;;5018354;28;20040;-91
2024/01/19 11:36:40;;;;;;;13.48;3.80;;;3.70;99.90;;;;;;5033150;28;20025;-91
2024/01/19 11:39:10;;;;;;;12.68;4.13;;;3.70;99.90;;;;;;5041271;28;20083;-90
2024/01/19 11:41:36;;;;;;;8.27;3.28;;;3.70;99.90;;;;;;5044669;28;20527;-91
2024/01/19 11:44:05;;;;;;;12.57;3.83;;;3.70;99.90;;;;;;5027628;28;20192;-91
2024/01/19 11:46:48;;;;;;;9.02;3.42;;;3.80;99.90;;;;;;5032398;28;20029;-91
2024/01/19 11:51:58;;;;;;;10.55;3.30;;;3.80;99.90;;;;;;5050823;28;20029;-91
2024/01/19 11:54:28;;;;;;;31.00;4.18;;;3.90;99.90;;;;;;5033250;28;20094;-91
2024/01/19 11:57:32;;;;;;;15.88;3.15;;;3.80;99.90;;;;;;5032111;28;20020;-90
2024/01/19 11:59:58;;;;;;;11.23;3.08;;;3.90;99.90;;;;;;5024640;28;20064;-91
2024/01/19 12:02:34;;;;;;;11.55;3.15;;;4.00;99.90;;;;;;5032235;28;20437;-90
2024/01/19 12:05:03;;;;;;;8.98;3.80;;;4.00;99.90;;;;;;5029515;28;20109;-91
2024/01/19 12:07:29;;;;;;;13.80;3.75;;;4.00;99.90;;;;;;5031021;28;20055;-89
2024/01/19 12:10:12;;;;;;;9.20;3.67;;;4.80;99.90;;;;;;5032918;28;20422;-90
2024/01/19 12:12:39;;;;;;;14.18;3.45;;;4.10;99.90;;;;;;5032778;28;20042;-91
2024/01/19 12:15:06;;;;;;;11.20;3.33;;;5.10;99.90;;;;;;5034022;28;20359;-90
2024/01/19 12:17:43;;;;;;;17.88;3.33;;;4.10;99.90;;;;;;5033553;28;20049;-91
2024/01/19 12:20:18;;;;;;;6.80;2.83;;;4.00;99.90;;;;;;5022033;28;20084;-91
2024/01/19 12:22:45;;;;;;;9.68;2.90;;;4.10;99.90;;;;;;5016979;28;20596;-90
2024/01/19 12:25:16;;;;;;;11.30;3.20;;;4.20;99.90;;;;;;5013881;28;20466;-89
2024/01/19 12:27:41;;;;;;;;;;;4.20;99.90;;;;;;5035621;28;20033;-90
2024/01/19 12:30:33;;;;;;;9.48;3.67;;;4.10;99.90;;;;;;5032356;28;19963;-89
2024/01/19 12:33:30;;;;;;;6.80;3.00;;;3.90;99.90;;;;;;5014525;28;20030;-90
2024/01/19 12:36:12;;;;;;;8.30;4.15;;;4.20;99.90;;;;;;5013887;28;20049;-92
2024/01/19 12:38:41;;;;;;;8.70;3.25;;;4.30;99.90;;;;;;5032378;28;20037;-89
2024/01/19 12:41:17;;;;;;;6.65;3.67;;;3.60;99.90;;;;;;5029360;28;20045;-89
2024/01/19 12:43:43;;;;;;;7.20;3.10;;;4.20;99.90;;;;;;5026180;28;20025;-88
2024/01/19 12:46:14;;;;;;;7.68;3.20;;;4.20;99.90;;;;;;5033481;28;20033;-88
2024/01/19 12:48:40;;;;;;;10.15;3.15;;;5.20;99.90;;;;;;5017602;28;20034;-88
2024/01/19 12:51:06;;;;;;;8.95;3.53;;;5.40;99.90;;;;;;5023561;28;20133;-89
2024/01/19 12:53:32;;;;;;;8.30;3.28;;;4.30;99.90;;;;;;5017761;28;20030;-88
2024/01/19 12:56:02;;;;;;;7.10;3.15;;;4.60;99.90;;;;;;5032091;28;20029;-89
2024/01/19 12:58:28;;;;;;;13.07;4.72;;;4.40;99.90;;;;;;5028918;28;20025;-89